Time;durP1;ratioP1;P1;durP2;ratioP2;P2;SDS_P1;SDS_P2;PMS_P1;PMS_P2;Temp;Humidity;BMP_temperature;BMP_pressure;BME280_temperature;BME280_humidity;BME280_pressure;Samples;Min_cycle;Max_cycle;Signal;HPM_P1;HPM_P2
2023/03/19 00:02:14;;;;;;;14.13;8.10;;;27.20;99.90;;;;;;5094629;28;20698;-82
2023/03/19 00:04:45;;;;;;;10.30;7.00;;;27.40;99.90;;;;;;5094555;28;20661;-79
2023/03/19 00:07:16;;;;;;;12.73;7.82;;;27.50;99.90;;;;;;5094667;28;20211;-78
2023/03/19 00:09:49;;;;;;;11.93;6.85;;;27.70;99.90;;;;;;5095051;28;20386;-79
2023/03/19 00:12:20;;;;;;;16.50;7.55;;;27.80;99.90;;;;;;5094713;28;20682;-78
2023/03/19 00:14:51;;;;;;;10.00;6.60;;;28.00;99.90;;;;;;5092886;28;20207;-78
2023/03/19 00:17:23;;;;;;;12.07;7.05;;;28.10;99.90;;;;;;5076540;28;20208;-78
2023/03/19 00:19:54;;;;;;;10.63;6.80;;;28.20;99.90;;;;;;5094593;28;20218;-78
2023/03/19 00:22:25;;;;;;;10.80;7.15;;;28.30;99.90;;;;;;5094376;28;20515;-79
2023/03/19 00:25:00;;;;;;;10.13;6.70;;;28.30;99.90;;;;;;5094275;28;20196;-78
2023/03/19 00:27:32;;;;;;;11.77;7.00;;;28.40;99.90;;;;;;5094246;28;20199;-79
2023/03/19 00:30:03;;;;;;;11.38;6.95;;;28.50;99.90;;;;;;5094104;28;20733;-79
2023/03/19 00:32:36;;;;;;;10.57;6.60;;;28.60;99.90;;;;;;5094338;28;20294;-78
2023/03/19 00:35:09;;;;;;;10.65;6.60;;;28.70;99.90;;;;;;5094330;28;20201;-78
2023/03/19 00:37:42;;;;;;;11.75;6.47;;;28.80;99.90;;;;;;5094044;28;20220;-79
2023/03/19 00:40:16;;;;;;;10.82;6.40;;;28.90;99.90;;;;;;5094429;28;20216;-78
2023/03/19 00:42:47;;;;;;;7.57;6.28;;;29.00;99.90;;;;;;5073652;28;20254;-78
2023/03/19 00:45:18;;;;;;;8.60;5.88;;;29.20;99.90;;;;;;5073314;28;20216;-79
2023/03/19 00:47:49;;;;;;;9.45;5.90;;;29.30;99.90;;;;;;5072208;28;20224;-79
2023/03/19 00:50:20;;;;;;;8.43;5.80;;;29.40;99.90;;;;;;5074147;28;20189;-79
2023/03/19 00:52:51;;;;;;;7.95;5.82;;;29.50;99.90;;;;;;5073821;28;20280;-79
2023/03/19 00:55:24;;;;;;;8.23;5.35;;;29.60;99.90;;;;;;5073781;28;20200;-77
2023/03/19 00:57:55;;;;;;;6.82;4.90;;;29.70;99.90;;;;;;5072996;28;20189;-77
2023/03/19 01:00:26;;;;;;;9.45;4.97;;;29.80;99.90;;;;;;5073337;28;20239;-76
2023/03/19 01:02:59;;;;;;;6.15;5.05;;;29.90;99.90;;;;;;5073974;28;20192;-76
2023/03/19 01:05:30;;;;;;;8.00;5.40;;;30.10;99.90;;;;;;5073632;28;20189;-80
2023/03/19 01:08:01;;;;;;;5.22;4.55;;;30.30;99.90;;;;;;5073610;28;20211;-76
2023/03/19 01:10:36;;;;;;;8.85;5.70;;;30.40;99.90;;;;;;5073525;28;20189;-76
2023/03/19 01:13:07;;;;;;;8.02;5.45;;;30.50;99.90;;;;;;5073568;28;20189;-76
2023/03/19 01:15:39;;;;;;;6.55;4.75;;;30.70;99.90;;;;;;5073305;28;20664;-76
2023/03/19 01:18:11;;;;;;;7.80;4.63;;;30.80;99.90;;;;;;5073002;28;20190;-76
2023/03/19 01:20:43;;;;;;;7.10;4.70;;;31.00;99.90;;;;;;5073370;28;20224;-76
2023/03/19 01:23:14;;;;;;;6.07;4.90;;;31.10;99.90;;;;;;5073467;28;20189;-77
2023/03/19 01:25:49;;;;;;;8.23;5.35;;;31.20;99.90;;;;;;5073449;28;20200;-77
2023/03/19 01:28:21;;;;;;;7.47;4.95;;;31.40;99.90;;;;;;5073260;28;20184;-76
2023/03/19 01:30:52;;;;;;;5.35;4.50;;;31.50;99.90;;;;;;5072842;28;20275;-77
2023/03/19 01:33:23;;;;;;;6.95;4.32;;;31.70;99.90;;;;;;5073307;28;20196;-77
2023/03/19 01:35:54;;;;;;;7.90;4.38;;;31.90;99.90;;;;;;5073209;28;20228;-76
2023/03/19 01:38:25;;;;;;;11.73;5.50;;;32.00;99.90;;;;;;5073244;28;20258;-77
2023/03/19 01:40:58;;;;;;;6.40;4.10;;;32.00;99.90;;;;;;5073129;28;20240;-78
2023/03/19 01:43:31;;;;;;;5.50;4.10;;;32.20;99.90;;;;;;5073302;28;20189;-77
2023/03/19 01:46:07;;;;;;;5.90;4.30;;;32.30;99.90;;;;;;5073020;28;20204;-77
2023/03/19 01:48:47;;;;;;;8.40;4.63;;;32.40;99.90;;;;;;5073110;28;20533;-77
2023/03/19 01:51:25;;;;;;;6.95;4.53;;;32.50;99.90;;;;;;5073184;28;20185;-77
2023/03/19 01:53:59;;;;;;;6.25;4.20;;;32.60;99.90;;;;;;5073142;28;20667;-77
2023/03/19 01:56:34;;;;;;;4.97;3.97;;;32.70;99.90;;;;;;5073463;28;20193;-77
2023/03/19 01:59:10;;;;;;;8.18;4.28;;;32.80;99.90;;;;;;5072871;28;20188;-79
2023/03/19 02:01:47;;;;;;;5.65;4.10;;;32.90;99.90;;;;;;5073320;28;20216;-77
2023/03/19 02:04:18;;;;;;;5.40;3.90;;;33.10;99.90;;;;;;5073020;28;20195;-77
2023/03/19 02:06:50;;;;;;;5.47;4.00;;;33.10;99.90;;;;;;5073235;28;20196;-77
2023/03/19 02:09:30;;;;;;;4.93;3.72;;;33.10;99.90;;;;;;5072975;28;20739;-77
2023/03/19 02:12:04;;;;;;;5.97;3.17;;;33.20;99.90;;;;;;5073044;28;20204;-78
2023/03/19 02:14:35;;;;;;;5.47;3.90;;;33.20;99.90;;;;;;5072695;28;20184;-77
2023/03/19 02:17:07;;;;;;;4.53;3.42;;;33.40;99.90;;;;;;5072940;28;20192;-77
2023/03/19 02:19:45;;;;;;;8.23;3.92;;;33.50;99.90;;;;;;5072849;28;20189;-77
2023/03/19 02:22:18;;;;;;;6.22;3.80;;;33.50;99.90;;;;;;5072828;28;20255;-79
2023/03/19 02:24:54;;;;;;;4.10;3.70;;;33.60;99.90;;;;;;5072111;28;20212;-77
2023/03/19 02:27:27;;;;;;;4.25;3.30;;;33.70;99.90;;;;;;5072563;28;20188;-78
2023/03/19 02:29:58;;;;;;;7.13;3.67;;;33.70;99.90;;;;;;5075019;28;20244;-81
2023/03/19 02:32:30;;;;;;;5.25;3.30;;;33.80;99.90;;;;;;5076618;28;20652;-78
2023/03/19 02:35:01;;;;;;;5.53;3.65;;;33.80;99.90;;;;;;5076453;28;20623;-78
2023/03/19 02:37:33;;;;;;;5.45;4.07;;;33.80;99.90;;;;;;5076366;28;20235;-78
2023/03/19 02:40:07;;;;;;;8.10;4.63;;;33.80;99.90;;;;;;5099330;22;20224;-74
2023/03/19 02:42:40;;;;;;;5.88;4.00;;;33.80;99.90;;;;;;5076270;28;20234;-74
2023/03/19 02:45:12;;;;;;;6.88;4.60;;;33.90;99.90;;;;;;5076807;28;20192;-74
2023/03/19 02:47:43;;;;;;;6.55;4.70;;;33.90;99.90;;;;;;5076085;28;20201;-74
2023/03/19 02:50:15;;;;;;;7.55;5.10;;;34.00;99.90;;;;;;5076145;28;20189;-77
2023/03/19 02:52:46;;;;;;;7.40;5.10;;;34.10;99.90;;;;;;5076412;28;20192;-75
2023/03/19 02:55:17;;;;;;;7.38;5.25;;;34.10;99.90;;;;;;5076139;28;20188;-76
2023/03/19 02:57:50;;;;;;;6.55;4.82;;;34.10;99.90;;;;;;5075877;28;20708;-75
2023/03/19 03:00:21;;;;;;;8.15;4.97;;;34.10;99.90;;;;;;5075984;28;20192;-74
2023/03/19 03:02:52;;;;;;;7.47;4.80;;;34.10;99.90;;;;;;5075913;28;20191;-75
2023/03/19 03:05:23;;;;;;;9.30;4.95;;;34.20;99.90;;;;;;5076035;28;20199;-75
2023/03/19 03:07:54;;;;;;;7.28;5.03;;;34.10;99.90;;;;;;5075942;28;20202;-75
2023/03/19 03:10:31;;;;;;;10.23;5.53;;;34.20;99.90;;;;;;5075914;28;20647;-75
2023/03/19 03:13:04;;;;;;;7.97;5.35;;;34.20;99.90;;;;;;5075697;28;20192;-74
2023/03/19 03:15:35;;;;;;;8.85;6.00;;;34.10;99.90;;;;;;5075836;28;20197;-75
2023/03/19 03:18:06;;;;;;;7.43;5.95;;;34.00;99.90;;;;;;5075840;28;20188;-75
2023/03/19 03:20:37;;;;;;;8.45;5.55;;;34.00;99.90;;;;;;5075611;28;20195;-74
2023/03/19 03:23:09;;;;;;;9.40;5.82;;;34.00;99.90;;;;;;5075606;28;20197;-74
2023/03/19 03:25:40;;;;;;;9.07;5.53;;;33.90;99.90;;;;;;5075246;28;20188;-74
2023/03/19 03:28:13;;;;;;;11.35;5.68;;;33.90;99.90;;;;;;5075572;28;20196;-74
2023/03/19 03:30:50;;;;;;;6.18;4.88;;;34.00;99.90;;;;;;5075707;28;20203;-75
2023/03/19 03:33:22;;;;;;;7.20;5.90;;;33.90;99.90;;;;;;5075543;28;20185;-76
2023/03/19 03:35:56;;;;;;;9.25;5.80;;;33.90;99.90;;;;;;5075522;28;20196;-74
2023/03/19 03:38:27;;;;;;;9.55;6.10;;;34.00;99.90;;;;;;5075168;28;20193;-75
2023/03/19 03:40:58;;;;;;;8.98;6.45;;;33.80;99.90;;;;;;5074582;28;20327;-75
2023/03/19 03:43:31;;;;;;;8.25;5.60;;;33.70;99.90;;;;;;5075253;28;20203;-75
2023/03/19 03:46:02;;;;;;;7.63;6.10;;;33.60;99.90;;;;;;5075258;28;20188;-75
2023/03/19 03:48:36;;;;;;;10.57;6.63;;;33.70;99.90;;;;;;5075457;28;20193;-76
2023/03/19 03:51:13;;;;;;;11.55;6.57;;;33.60;99.90;;;;;;5075297;28;20193;-75
2023/03/19 03:53:44;;;;;;;11.18;6.35;;;33.70;99.90;;;;;;5075007;28;20192;-75
2023/03/19 03:56:15;;;;;;;9.73;6.93;;;33.50;99.90;;;;;;5074837;28;20201;-77
2023/03/19 03:58:48;;;;;;;14.52;7.45;;;33.40;99.90;;;;;;5074886;28;20189;-74
2023/03/19 04:01:20;;;;;;;11.20;6.85;;;33.40;99.90;;;;;;5074852;28;20740;-75
2023/03/19 04:03:51;;;;;;;9.35;7.03;;;33.30;99.90;;;;;;5074868;28;20188;-75
2023/03/19 04:06:24;;;;;;;9.68;7.47;;;33.30;99.90;;;;;;5074802;28;20196;-75
2023/03/19 04:08:55;;;;;;;14.35;7.72;;;33.30;99.90;;;;;;5074875;28;20200;-76
2023/03/19 04:11:31;;;;;;;10.95;7.28;;;33.40;99.90;;;;;;5074963;28;20185;-75
2023/03/19 04:14:05;;;;;;;9.13;7.00;;;33.30;99.90;;;;;;5074699;28;20224;-74
2023/03/19 04:16:37;;;;;;;9.07;7.10;;;33.30;99.90;;;;;;5074650;28;20187;-75
2023/03/19 04:19:08;;;;;;;9.52;6.43;;;33.10;99.90;;;;;;5074527;28;20196;-74
2023/03/19 04:21:40;;;;;;;8.82;7.00;;;33.10;99.90;;;;;;5074448;28;20270;-75
2023/03/19 04:24:11;;;;;;;8.82;6.60;;;33.00;99.90;;;;;;5074337;28;20216;-74
2023/03/19 04:26:42;;;;;;;9.52;6.25;;;32.90;99.90;;;;;;5074547;28;20254;-73
2023/03/19 04:29:16;;;;;;;7.47;5.85;;;33.00;99.90;;;;;;5074343;28;20197;-75
2023/03/19 04:31:53;;;;;;;9.20;5.60;;;33.00;99.90;;;;;;5074270;28;20192;-74
2023/03/19 04:34:24;;;;;;;7.85;5.13;;;33.00;99.90;;;;;;5074281;28;20188;-75
2023/03/19 04:36:55;;;;;;;6.90;5.05;;;33.00;99.90;;;;;;5074314;28;20574;-76
2023/03/19 04:39:26;;;;;;;8.27;4.60;;;32.90;99.90;;;;;;5073802;28;20328;-75
2023/03/19 04:41:58;;;;;;;6.07;5.05;;;32.90;99.90;;;;;;5074134;28;20690;-73
2023/03/19 04:44:36;;;;;;;7.88;5.03;;;32.90;99.90;;;;;;5074285;28;20279;-73
2023/03/19 04:47:07;;;;;;;6.72;4.63;;;32.80;99.90;;;;;;5074033;28;20196;-74
2023/03/19 04:49:38;;;;;;;10.43;4.95;;;32.60;99.90;;;;;;5073978;28;20197;-74
2023/03/19 04:52:10;;;;;;;7.57;4.75;;;32.50;99.90;;;;;;5073095;28;20191;-74
2023/03/19 04:54:41;;;;;;;7.60;5.38;;;32.30;99.90;;;;;;5074222;28;20189;-75
2023/03/19 04:57:12;;;;;;;6.30;5.00;;;32.20;99.90;;;;;;5073850;28;20196;-75
2023/03/19 04:59:52;;;;;;;7.03;4.80;;;32.10;99.90;;;;;;5073881;28;20189;-74
2023/03/19 05:02:24;;;;;;;8.10;4.88;;;32.10;99.90;;;;;;5073649;28;20702;-76
2023/03/19 05:04:55;;;;;;;5.38;4.85;;;32.10;99.90;;;;;;5073732;28;20185;-74
2023/03/19 05:07:26;;;;;;;9.75;5.22;;;32.10;99.90;;;;;;5073437;28;20196;-75
2023/03/19 05:09:57;;;;;;;9.43;4.90;;;32.10;99.90;;;;;;5073707;28;20291;-75
2023/03/19 05:12:28;;;;;;;7.50;4.70;;;32.10;99.90;;;;;;5073550;28;20556;-75
2023/03/19 05:15:01;;;;;;;7.13;4.82;;;32.00;99.90;;;;;;5073619;28;20659;-74
2023/03/19 05:17:32;;;;;;;7.13;4.80;;;31.80;99.90;;;;;;5073974;28;20189;-74
2023/03/19 05:20:05;;;;;;;6.13;4.65;;;31.70;99.90;;;;;;5073538;28;20200;-75
2023/03/19 05:22:36;;;;;;;5.75;4.57;;;31.60;99.90;;;;;;5073112;28;20274;-75
2023/03/19 05:25:07;;;;;;;7.60;4.80;;;31.50;99.90;;;;;;5073796;28;20185;-74
2023/03/19 05:27:39;;;;;;;6.72;4.45;;;31.40;99.90;;;;;;5073492;28;20651;-74
2023/03/19 05:30:13;;;;;;;7.03;4.40;;;31.50;99.90;;;;;;5073458;28;20204;-75
2023/03/19 05:32:45;;;;;;;7.82;4.80;;;31.50;99.90;;;;;;5073377;28;20197;-74
2023/03/19 05:35:16;;;;;;;11.48;4.80;;;31.50;99.90;;;;;;5073370;28;20192;-74
2023/03/19 05:37:47;;;;;;;8.77;4.03;;;31.40;99.90;;;;;;5073116;28;20228;-74
2023/03/19 05:40:19;;;;;;;7.70;4.40;;;31.30;99.90;;;;;;5072985;28;20240;-76
2023/03/19 05:42:50;;;;;;;5.15;4.47;;;31.30;99.90;;;;;;5073141;28;20217;-74
2023/03/19 05:45:23;;;;;;;9.90;4.68;;;31.30;99.90;;;;;;5073607;28;20189;-74
2023/03/19 05:47:54;;;;;;;7.18;4.25;;;31.40;99.90;;;;;;5073183;28;20204;-74
2023/03/19 05:50:25;;;;;;;8.60;4.20;;;31.40;99.90;;;;;;5072971;28;20196;-75
2023/03/19 05:52:56;;;;;;;7.72;4.18;;;31.40;99.90;;;;;;5073142;28;20197;-75
2023/03/19 05:55:27;;;;;;;6.22;4.07;;;31.40;99.90;;;;;;5067948;28;20591;-76
2023/03/19 05:57:58;;;;;;;6.95;4.03;;;31.30;99.90;;;;;;5069465;28;20207;-74
2023/03/19 06:00:31;;;;;;;7.40;3.75;;;31.30;99.90;;;;;;5072676;28;20204;-76
2023/03/19 06:03:02;;;;;;;8.68;4.15;;;31.40;99.90;;;;;;5073865;28;20263;-77
2023/03/19 06:05:34;;;;;;;7.03;3.60;;;31.30;99.90;;;;;;5076583;28;20196;-75
2023/03/19 06:08:05;;;;;;;5.60;3.53;;;31.30;99.90;;;;;;5076979;28;20314;-75
2023/03/19 06:10:37;;;;;;;6.93;3.50;;;31.20;99.90;;;;;;5076813;28;20220;-76
2023/03/19 06:13:08;;;;;;;6.68;3.97;;;31.20;99.90;;;;;;5076827;28;20205;-75
2023/03/19 06:15:41;;;;;;;5.88;3.58;;;31.20;99.90;;;;;;5076751;28;20204;-75
2023/03/19 06:18:12;;;;;;;8.80;3.90;;;31.10;99.90;;;;;;5076885;28;20666;-76
2023/03/19 06:20:43;;;;;;;7.53;3.65;;;31.00;99.90;;;;;;5076441;28;20197;-75
2023/03/19 06:23:15;;;;;;;5.72;3.55;;;30.90;99.90;;;;;;5076395;28;20220;-75
2023/03/19 06:25:46;;;;;;;6.13;3.17;;;30.90;99.90;;;;;;5076677;28;20276;-80
2023/03/19 06:28:17;;;;;;;7.20;4.07;;;30.80;99.90;;;;;;5076542;28;20700;-74
2023/03/19 06:30:50;;;;;;;8.57;3.83;;;30.80;99.90;;;;;;5076488;28;20204;-75
2023/03/19 06:33:21;;;;;;;6.50;3.33;;;30.80;99.90;;;;;;5076419;28;20193;-75
2023/03/19 06:35:52;;;;;;;9.18;4.20;;;30.80;99.90;;;;;;5076313;28;20199;-76
2023/03/19 06:38:23;;;;;;;7.03;3.85;;;30.80;99.90;;;;;;5076320;28;20200;-79
2023/03/19 06:40:55;;;;;;;5.65;3.92;;;30.70;99.90;;;;;;5076075;28;20724;-74
2023/03/19 06:43:26;;;;;;;7.90;3.70;;;30.70;99.90;;;;;;5063502;28;20268;-75
2023/03/19 06:45:59;;;;;;;6.53;3.70;;;30.60;99.90;;;;;;5076088;28;20578;-75
2023/03/19 06:48:30;;;;;;;6.88;3.47;;;30.50;99.90;;;;;;5075941;28;20200;-75
2023/03/19 06:51:01;;;;;;;6.47;3.42;;;30.50;99.90;;;;;;5075929;28;20204;-76
2023/03/19 06:53:32;;;;;;;6.88;3.83;;;30.40;99.90;;;;;;5076070;28;20232;-75
2023/03/19 06:56:03;;;;;;;8.50;3.80;;;30.30;99.90;;;;;;5075820;28;20193;-75
2023/03/19 06:58:35;;;;;;;8.50;3.60;;;30.20;99.90;;;;;;5075973;28;20197;-75
2023/03/19 07:01:08;;;;;;;7.72;3.47;;;30.10;99.90;;;;;;5075770;28;20566;-75
2023/03/19 07:03:39;;;;;;;8.18;3.55;;;30.10;99.90;;;;;;5075936;28;20227;-77
2023/03/19 07:06:10;;;;;;;6.25;3.50;;;29.90;99.90;;;;;;5063408;28;20229;-76
2023/03/19 07:08:45;;;;;;;7.05;3.70;;;29.90;99.90;;;;;;5075253;28;20211;-75
2023/03/19 07:11:16;;;;;;;7.80;3.55;;;29.80;99.90;;;;;;5075554;28;20283;-75
2023/03/19 07:13:47;;;;;;;11.55;3.67;;;29.70;99.90;;;;;;5075581;28;20201;-75
2023/03/19 07:16:20;;;;;;;6.50;3.60;;;29.50;99.90;;;;;;5074922;28;20227;-75
2023/03/19 07:18:51;;;;;;;8.40;3.63;;;29.50;99.90;;;;;;5075672;28;20204;-75
2023/03/19 07:21:22;;;;;;;6.25;3.63;;;29.40;99.90;;;;;;5075640;28;20196;-75
2023/03/19 07:23:54;;;;;;;8.18;3.55;;;29.30;99.90;;;;;;5075282;28;20225;-75
2023/03/19 07:26:25;;;;;;;5.22;3.60;;;29.20;99.90;;;;;;5075482;28;20683;-75
2023/03/19 07:28:56;;;;;;;10.38;4.03;;;29.00;99.90;;;;;;5075370;28;20208;-76
2023/03/19 07:31:29;;;;;;;5.78;3.40;;;28.90;99.90;;;;;;5075356;28;20397;-75
2023/03/19 07:34:00;;;;;;;6.22;3.50;;;28.80;99.90;;;;;;5075247;28;20211;-75
2023/03/19 07:36:31;;;;;;;6.50;3.50;;;28.80;99.90;;;;;;5075180;28;20559;-76
2023/03/19 07:39:02;;;;;;;5.93;3.17;;;28.70;99.90;;;;;;5074825;28;20221;-75
2023/03/19 07:41:34;;;;;;;10.07;5.32;;;28.70;99.90;;;;;;5075104;28;20243;-76
2023/03/19 07:44:05;;;;;;;12.93;6.55;;;28.60;99.90;;;;;;5075054;28;20209;-75
2023/03/19 07:46:38;;;;;;;10.00;6.68;;;28.40;99.90;;;;;;5074887;28;20196;-75
2023/03/19 07:49:09;;;;;;;12.30;7.13;;;28.20;99.90;;;;;;5075176;28;20204;-74
2023/03/19 07:51:40;;;;;;;11.32;7.10;;;27.90;99.90;;;;;;5074873;28;20211;-74
2023/03/19 07:54:11;;;;;;;12.93;7.43;;;27.70;99.90;;;;;;5075026;28;20660;-74
2023/03/19 07:56:42;;;;;;;13.95;7.63;;;27.50;99.90;;;;;;5074713;28;20197;-75
2023/03/19 07:59:13;;;;;;;12.73;7.60;;;27.30;99.90;;;;;;5074894;28;20200;-76
2023/03/19 08:01:46;;;;;;;13.75;7.97;;;27.10;99.90;;;;;;5074439;28;20193;-74
2023/03/19 08:04:17;;;;;;;14.45;8.18;;;26.90;99.90;;;;;;5074819;28;20204;-75
2023/03/19 08:06:48;;;;;;;15.20;8.50;;;26.80;99.90;;;;;;5074580;28;20274;-74
2023/03/19 08:09:20;;;;;;;16.35;9.30;;;26.70;99.90;;;;;;5074582;28;20275;-75
2023/03/19 08:11:51;;;;;;;12.32;8.63;;;26.60;99.90;;;;;;5074459;28;20348;-75
2023/03/19 08:14:22;;;;;;;14.57;9.05;;;26.50;99.90;;;;;;5074376;28;20199;-76
2023/03/19 08:16:55;;;;;;;17.38;8.75;;;26.40;99.90;;;;;;5074152;28;20197;-75
2023/03/19 08:19:27;;;;;;;15.05;9.25;;;26.30;99.90;;;;;;5074403;28;20219;-74
2023/03/19 08:21:58;;;;;;;14.82;9.55;;;26.30;99.90;;;;;;5074115;28;20284;-75
2023/03/19 08:24:29;;;;;;;15.95;10.25;;;26.20;99.90;;;;;;5074385;28;20659;-74
2023/03/19 08:27:00;;;;;;;13.93;9.63;;;26.00;99.90;;;;;;5074047;28;20664;-79
2023/03/19 08:29:31;;;;;;;17.65;12.05;;;25.90;99.90;;;;;;5074047;28;20254;-74
2023/03/19 08:32:04;;;;;;;22.00;12.15;;;25.80;99.90;;;;;;5060576;28;20196;-75
2023/03/19 08:34:36;;;;;;;18.83;12.35;;;25.60;99.90;;;;;;5073773;28;20284;-74
2023/03/19 08:39:43;;;;;;;22.70;13.30;;;25.40;99.90;;;;;;5055060;28;20694;-77
2023/03/19 08:42:14;;;;;;;20.75;13.57;;;25.30;99.90;;;;;;5063068;28;20647;-77
2023/03/19 08:44:45;;;;;;;26.45;15.05;;;25.20;99.90;;;;;;5073705;28;20204;-76
2023/03/19 08:47:19;;;;;;;24.75;15.48;;;25.10;99.90;;;;;;5074059;28;20200;-77
2023/03/19 08:49:50;;;;;;;28.23;16.75;;;25.00;99.90;;;;;;5073698;28;20197;-77
2023/03/19 08:52:21;;;;;;;26.27;14.65;;;24.80;99.90;;;;;;5060189;28;20211;-78
2023/03/19 08:54:52;;;;;;;24.00;14.60;;;24.70;99.90;;;;;;5073533;28;20197;-77
2023/03/19 08:57:24;;;;;;;25.60;14.25;;;24.60;99.90;;;;;;5073689;28;20215;-76
2023/03/19 08:59:56;;;;;;;21.50;12.82;;;24.50;99.90;;;;;;5073262;28;20193;-76
2023/03/19 09:02:29;;;;;;;29.17;13.68;;;24.50;99.90;;;;;;5073424;28;20216;-78
2023/03/19 09:05:00;;;;;;;25.88;13.18;;;24.40;99.90;;;;;;5054908;28;20202;-77
2023/03/19 09:07:32;;;;;;;28.52;13.52;;;24.40;99.90;;;;;;5073500;28;20193;-80
2023/03/19 09:10:03;;;;;;;27.17;13.25;;;24.40;99.90;;;;;;5073458;28;20288;-78
2023/03/19 09:12:34;;;;;;;28.17;13.95;;;24.40;99.90;;;;;;5062637;28;20197;-79
2023/03/19 09:15:05;;;;;;;23.63;13.80;;;24.40;99.90;;;;;;5073059;28;20192;-77
2023/03/19 09:17:38;;;;;;;24.88;14.30;;;24.30;99.90;;;;;;5073350;28;20224;-78
2023/03/19 09:20:10;;;;;;;24.83;13.90;;;24.30;99.90;;;;;;5073135;28;20198;-77
2023/03/19 09:22:42;;;;;;;28.35;14.02;;;24.30;99.90;;;;;;5073160;28;20216;-79
2023/03/19 09:25:14;;;;;;;27.10;13.27;;;24.30;99.90;;;;;;5073058;28;20196;-76
2023/03/19 09:27:45;;;;;;;24.80;12.07;;;24.30;99.90;;;;;;5073019;28;20193;-77
2023/03/19 09:30:17;;;;;;;30.67;11.43;;;24.30;99.90;;;;;;5073199;28;20208;-77
2023/03/19 09:32:50;;;;;;;31.88;11.57;;;24.30;99.90;;;;;;5073166;28;20224;-78
2023/03/19 09:35:21;;;;;;;28.55;10.85;;;24.30;99.90;;;;;;5073558;28;20201;-77
2023/03/19 09:37:53;;;;;;;27.77;10.45;;;24.30;99.90;;;;;;5072345;28;20275;-77
2023/03/19 09:40:29;;;;;;;32.22;10.57;;;24.30;99.90;;;;;;5073075;28;20204;-76
2023/03/19 09:43:20;;;;;;;23.58;9.50;;;24.30;99.90;;;;;;5072658;28;20265;-77
2023/03/19 09:45:52;;;;;;;36.15;10.65;;;24.30;99.90;;;;;;5072801;28;20207;-76
2023/03/19 09:48:33;;;;;;;30.95;9.65;;;24.30;99.90;;;;;;5073044;28;20549;-76
2023/03/19 09:51:08;;;;;;;35.17;9.73;;;24.30;99.90;;;;;;5072832;28;20200;-81
2023/03/19 09:53:47;;;;;;;34.17;9.73;;;24.30;99.90;;;;;;5072725;28;20200;-78
2023/03/19 09:56:19;;;;;;;32.22;9.35;;;24.30;99.90;;;;;;5060629;28;20231;-77
2023/03/19 09:58:51;;;;;;;37.13;9.07;;;24.30;99.90;;;;;;5072384;28;20717;-79
2023/03/19 10:01:28;;;;;;;34.50;9.40;;;24.30;99.90;;;;;;5072881;28;20196;-76
2023/03/19 10:04:29;;;;;;;22.10;8.27;;;24.30;99.90;;;;;;5072730;28;20709;-77
2023/03/19 10:07:10;;;;;;;33.47;8.77;;;24.30;99.90;;;;;;5072766;28;20647;-77
2023/03/19 10:09:57;;;;;;;35.28;8.73;;;24.30;99.90;;;;;;5072860;28;20201;-77
2023/03/19 10:12:41;;;;;;;29.92;8.52;;;24.30;99.90;;;;;;5060532;28;20203;-78
2023/03/19 10:15:20;;;;;;;31.20;8.30;;;24.30;99.90;;;;;;5072689;28;20188;-76
2023/03/19 10:18:03;;;;;;;40.03;8.30;;;24.30;99.90;;;;;;5072764;28;20202;-76
2023/03/19 10:20:52;;;;;;;28.02;7.60;;;24.30;99.90;;;;;;5060670;28;20224;-76
2023/03/19 10:23:36;;;;;;;25.73;7.15;;;24.30;99.90;;;;;;5069721;28;20229;-77
2023/03/19 10:26:11;;;;;;;31.02;7.75;;;24.30;99.90;;;;;;5060333;28;20194;-75
2023/03/19 10:28:44;;;;;;;36.55;7.65;;;24.40;99.90;;;;;;5052037;28;20189;-77
2023/03/19 10:31:27;;;;;;;27.77;6.47;;;24.40;99.90;;;;;;5051998;28;20190;-76
2023/03/19 10:34:15;;;;;;;27.85;7.25;;;24.30;99.90;;;;;;5052324;28;20660;-76
2023/03/19 10:36:48;;;;;;;35.60;8.05;;;24.30;99.90;;;;;;5052795;28;20641;-77
2023/03/19 10:39:20;;;;;;;33.90;7.93;;;24.30;99.90;;;;;;5052573;28;20279;-76
2023/03/19 10:41:59;;;;;;;32.42;8.13;;;24.30;99.90;;;;;;5051648;28;20627;-76
2023/03/19 10:44:33;;;;;;;30.70;7.75;;;24.30;99.90;;;;;;5052619;28;20600;-75
2023/03/19 10:47:13;;;;;;;31.23;7.45;;;24.30;99.90;;;;;;5052964;28;20200;-76
2023/03/19 10:49:45;;;;;;;37.42;7.82;;;24.30;99.90;;;;;;5052973;28;20552;-75
2023/03/19 10:52:28;;;;;;;34.10;7.97;;;24.30;99.90;;;;;;5056256;28;20198;-76
2023/03/19 10:55:03;;;;;;;33.47;8.43;;;24.30;99.90;;;;;;5056041;28;20206;-77
2023/03/19 10:57:34;;;;;;;33.42;8.82;;;24.30;99.90;;;;;;5056214;28;20193;-77
2023/03/19 11:00:09;;;;;;;35.30;8.27;;;24.40;99.90;;;;;;5056174;28;20198;-76
2023/03/19 11:02:47;;;;;;;39.20;8.40;;;24.30;99.90;;;;;;5056038;28;20250;-75
2023/03/19 11:05:31;;;;;;;32.00;8.27;;;24.40;99.90;;;;;;5055995;28;20201;-76
2023/03/19 11:08:08;;;;;;;25.83;8.63;;;24.40;99.90;;;;;;5056031;28;20201;-75
2023/03/19 11:10:46;;;;;;;35.03;8.60;;;24.40;99.90;;;;;;5055754;28;20201;-75
2023/03/19 11:13:25;;;;;;;32.78;9.30;;;24.40;99.90;;;;;;5055924;28;20190;-76
2023/03/19 11:15:59;;;;;;;39.08;8.90;;;24.40;99.90;;;;;;5055880;28;20576;-75
2023/03/19 11:18:32;;;;;;;30.05;9.10;;;24.40;99.90;;;;;;5055825;28;20276;-75
2023/03/19 11:21:08;;;;;;;33.85;9.65;;;24.30;99.90;;;;;;5055712;28;20276;-76
2023/03/19 11:23:43;;;;;;;34.40;9.02;;;24.30;99.90;;;;;;5055567;28;20209;-76
2023/03/19 11:26:23;;;;;;;27.23;8.20;;;24.30;99.90;;;;;;5055707;28;20189;-76
2023/03/19 11:28:58;;;;;;;44.10;9.50;;;24.30;99.90;;;;;;5055598;28;20209;-76
2023/03/19 11:31:42;;;;;;;27.10;7.95;;;24.30;99.90;;;;;;5055681;28;20189;-75
2023/03/19 11:34:26;;;;;;;28.35;8.15;;;24.30;99.90;;;;;;5055453;28;20208;-76
2023/03/19 11:37:04;;;;;;;30.90;8.45;;;24.30;99.90;;;;;;5055755;28;20628;-76
2023/03/19 11:39:48;;;;;;;25.48;7.75;;;24.30;99.90;;;;;;5055167;28;20236;-76
2023/03/19 11:42:46;;;;;;;25.92;8.18;;;24.30;99.90;;;;;;5055406;28;20197;-76
2023/03/19 11:45:27;;;;;;;35.95;8.38;;;24.30;99.90;;;;;;5054419;28;20225;-75
2023/03/19 11:48:08;;;;;;;28.95;8.75;;;24.30;99.90;;;;;;5055255;28;20190;-76
2023/03/19 11:50:46;;;;;;;29.27;8.13;;;24.30;99.90;;;;;;5055069;28;20265;-76
2023/03/19 11:53:26;;;;;;;28.13;8.27;;;24.30;99.90;;;;;;5054938;28;20185;-76
2023/03/19 11:56:10;;;;;;;31.70;8.10;;;24.20;99.90;;;;;;5055061;28;20186;-76
2023/03/19 11:59:18;;;;;;;30.17;8.45;;;24.20;99.90;;;;;;5055026;28;20190;-76
2023/03/19 12:02:14;;;;;;;31.80;8.00;;;24.20;99.90;;;;;;5054735;28;20194;-76
2023/03/19 12:05:04;;;;;;;29.13;7.82;;;24.20;99.90;;;;;;5054859;28;20221;-76
2023/03/19 12:07:42;;;;;;;24.33;7.63;;;24.20;99.90;;;;;;5054585;28;20239;-77
2023/03/19 12:10:32;;;;;;;28.35;8.63;;;24.20;99.90;;;;;;5054809;28;20196;-75
2023/03/19 12:13:22;;;;;;;33.50;8.27;;;24.10;99.90;;;;;;5054604;28;20247;-76
2023/03/19 12:16:02;;;;;;;31.92;8.70;;;24.10;99.90;;;;;;5054743;28;20189;-77
2023/03/19 12:18:58;;;;;;;30.30;8.73;;;24.10;99.90;;;;;;5054970;28;20198;-76
2023/03/19 12:21:41;;;;;;;33.38;8.68;;;24.10;99.90;;;;;;5054650;28;20535;-77
2023/03/19 12:24:23;;;;;;;30.65;7.97;;;24.00;99.90;;;;;;5054534;28;20213;-76
2023/03/19 12:27:05;;;;;;;32.40;9.07;;;24.00;99.90;;;;;;5054563;28;20194;-76
2023/03/19 12:29:49;;;;;;;23.60;7.63;;;24.00;99.90;;;;;;5054488;28;20193;-76
2023/03/19 12:32:34;;;;;;;31.58;8.32;;;24.00;99.90;;;;;;5054444;28;20198;-76
2023/03/19 12:35:16;;;;;;;25.42;8.02;;;24.00;99.90;;;;;;5054295;28;20192;-76
2023/03/19 12:37:59;;;;;;;30.98;8.02;;;24.00;99.90;;;;;;5053866;28;20241;-76
2023/03/19 12:40:35;;;;;;;27.52;7.90;;;24.00;99.90;;;;;;5054125;28;20206;-76
2023/03/19 12:43:15;;;;;;;27.55;8.43;;;24.00;99.90;;;;;;5054257;28;20609;-76
2023/03/19 12:45:51;;;;;;;25.00;8.00;;;24.00;99.90;;;;;;5054212;28;20197;-76
2023/03/19 12:48:28;;;;;;;28.85;8.38;;;23.90;99.90;;;;;;5054149;28;20189;-77
2023/03/19 12:51:04;;;;;;;29.35;8.15;;;23.90;99.90;;;;;;5054060;28;20189;-76
2023/03/19 12:53:45;;;;;;;29.00;8.18;;;23.90;99.90;;;;;;5053976;28;20189;-77
2023/03/19 12:56:21;;;;;;;19.63;6.60;;;23.90;99.90;;;;;;5054039;28;20304;-76
2023/03/19 12:59:04;;;;;;;22.35;6.75;;;23.90;99.90;;;;;;5053908;28;20628;-76
2023/03/19 13:01:41;;;;;;;36.45;8.02;;;23.90;99.90;;;;;;5053889;28;20189;-77
2023/03/19 13:04:16;;;;;;;24.25;6.95;;;23.90;99.90;;;;;;5053728;28;20217;-76
2023/03/19 13:06:54;;;;;;;25.85;7.63;;;23.90;99.90;;;;;;5053543;28;20189;-77
2023/03/19 13:09:33;;;;;;;25.50;7.65;;;23.90;99.90;;;;;;5053719;28;20189;-76
2023/03/19 13:12:09;;;;;;;26.77;7.95;;;23.90;99.90;;;;;;5053438;28;20193;-76
2023/03/19 13:14:51;;;;;;;28.80;7.57;;;23.90;99.90;;;;;;5053485;28;20212;-76
2023/03/19 13:17:29;;;;;;;34.72;7.78;;;23.90;99.90;;;;;;5053630;28;20189;-76
2023/03/19 13:20:06;;;;;;;28.30;7.80;;;23.90;99.90;;;;;;5053341;28;20209;-76